Cedar Creek, Texas
Current Conditions -  °F | °C
As of 4:53 AM on Wednesday 22 Oct 2014 (Local Time) from KAUS Reporting Station
Broken Clouds Broken Clouds  
Wind Chill: 58°   Ceiling: 20000
Heat Index: 58°   Visibility: 10mi
Dew Point: 56°   Wind: 0mph
Humidity: 93%   Direction: NA
Pressure: 30.05"   Gusts: NA
Location:  30.09°N, 97.5°W
Report Text: KAUS 220953Z 00000KT 10SM BKN200 14/13 A3005 RMK AO2 SLP169 T01440133
Loading
Personal Weather Stations






























Interactive Weather Map
Tropical Storm Tracking
New forecast layout! Learn more

10-Day Weather Forecast

Advertisements
Track Severe Weather on mobile